Time;durP1;ratioP1;P1;durP2;ratioP2;P2;SDS_P1;SDS_P2;PMS_P1;PMS_P2;Temp;Humidity;BMP_temperature;BMP_pressure;BME280_temperature;BME280_humidity;BME280_pressure;Samples;Min_cycle;Max_cycle;Signal;HPM_P1;HPM_P2
2023/01/15 00:02:11;;;;;;;28.75;16.85;;;;;;;;;;1918177;75;21073;-46
2023/01/15 00:04:40;;;;;;;34.83;18.20;;;;;;;;;;1918052;75;21038;-47
2023/01/15 00:07:08;;;;;;;33.00;19.20;;;;;;;;;;1918156;75;21000;-46
2023/01/15 00:09:37;;;;;;;33.85;17.52;;;;;;;;;;1918130;75;21043;-46
2023/01/15 00:12:06;;;;;;;33.42;18.42;;;;;;;;;;1918117;75;21160;-47
2023/01/15 00:14:34;;;;;;;28.17;17.62;;;;;;;;;;1918231;75;21007;-46
2023/01/15 00:17:04;;;;;;;32.42;18.35;;;;;;;;;;1918070;75;21023;-47
2023/01/15 00:19:33;;;;;;;31.48;17.87;;;;;;;;;;1917188;74;21196;-47
2023/01/15 00:22:01;;;;;;;30.27;17.25;;;;;;;;;;1918138;75;21031;-45
2023/01/15 00:29:58;;;;;;;30.32;17.17;;;;;;;;;;1848873;74;21031;-46
2023/01/15 00:32:28;;;;;;;30.77;16.57;;;;;;;;;;1918250;75;20997;-46
2023/01/15 00:34:58;;;;;;;26.37;17.70;;;;;;;;;;1918079;75;21023;-46
2023/01/15 00:37:27;;;;;;;28.17;16.20;;;;;;;;;;1917140;74;21016;-47
2023/01/15 00:39:55;;;;;;;30.05;16.90;;;;;;;;;;1918057;75;21078;-46
2023/01/15 00:42:23;;;;;;;30.90;16.52;;;;;;;;;;1918098;75;21003;-46
2023/01/15 00:44:52;;;;;;;37.38;17.95;;;;;;;;;;1918132;75;21011;-44
2023/01/15 00:47:21;;;;;;;30.27;16.82;;;;;;;;;;1918056;75;21011;-47
2023/01/15 00:49:50;;;;;;;30.15;16.27;;;;;;;;;;1917977;75;21027;-46
2023/01/15 00:52:19;;;;;;;33.67;17.37;;;;;;;;;;1918041;75;20999;-46
2023/01/15 00:54:48;;;;;;;29.45;17.25;;;;;;;;;;1910766;75;21015;-45
2023/01/15 00:57:17;;;;;;;33.75;18.50;;;;;;;;;;1905043;75;21031;-46
2023/01/15 00:59:45;;;;;;;30.02;17.27;;;;;;;;;;1904970;75;21075;-46
2023/01/15 01:02:14;;;;;;;25.15;15.85;;;;;;;;;;1905013;75;21098;-46
2023/01/15 01:04:42;;;;;;;25.12;16.65;;;;;;;;;;1905001;75;21029;-46
2023/01/15 01:07:11;;;;;;;26.30;16.10;;;;;;;;;;1904995;75;21069;-47
2023/01/15 01:09:39;;;;;;;28.32;17.50;;;;;;;;;;1905129;75;20980;-48
2023/01/15 01:12:08;;;;;;;29.77;17.90;;;;;;;;;;1905114;75;20996;-46
2023/01/15 01:14:37;;;;;;;32.53;18.17;;;;;;;;;;1905132;75;20983;-47
2023/01/15 01:17:06;;;;;;;30.30;14.78;;;;;;;;;;1904960;75;21023;-46
2023/01/15 01:19:36;;;;;;;30.30;16.23;;;;;;;;;;1905109;75;20993;-47
2023/01/15 01:22:04;;;;;;;33.73;18.65;;;;;;;;;;1905002;75;21063;-46
2023/01/15 01:24:33;;;;;;;50.55;24.87;;;;;;;;;;1905004;75;21035;-46
2023/01/15 01:27:02;;;;;;;45.78;22.85;;;;;;;;;;1904999;75;21474;-45
2023/01/15 01:29:32;;;;;;;44.77;23.52;;;;;;;;;;1904986;75;21144;-47
2023/01/15 01:32:00;;;;;;;47.83;24.65;;;;;;;;;;1905009;75;21478;-47
2023/01/15 01:34:29;;;;;;;40.95;21.82;;;;;;;;;;1904851;75;21458;-46
2023/01/15 01:36:58;;;;;;;38.33;20.85;;;;;;;;;;1904877;75;21047;-46
2023/01/15 01:39:26;;;;;;;42.60;21.20;;;;;;;;;;1904885;75;21142;-45
2023/01/15 01:41:55;;;;;;;45.28;21.05;;;;;;;;;;1905023;75;21078;-47
2023/01/15 01:44:34;;;;;;;49.08;24.12;;;;;;;;;;1904961;75;21031;-46
2023/01/15 01:47:04;;;;;;;36.60;19.70;;;;;;;;;;1904865;75;21003;-46
2023/01/15 01:49:34;;;;;;;38.53;22.35;;;;;;;;;;1905034;74;21145;-46
2023/01/15 01:52:04;;;;;;;44.67;22.65;;;;;;;;;;1904998;75;21136;-46
2023/01/15 01:54:34;;;;;;;37.78;21.35;;;;;;;;;;1908154;75;21126;-46
2023/01/15 01:57:04;;;;;;;52.33;24.40;;;;;;;;;;1917982;75;21064;-47
2023/01/15 01:59:33;;;;;;;41.10;24.57;;;;;;;;;;1917780;75;21095;-46
2023/01/15 02:02:01;;;;;;;41.23;23.35;;;;;;;;;;1917940;75;21075;-46
2023/01/15 02:04:30;;;;;;;46.40;23.38;;;;;;;;;;1918004;75;20999;-46
2023/01/15 02:07:00;;;;;;;46.73;23.22;;;;;;;;;;1894994;75;21089;-47
2023/01/15 02:09:29;;;;;;;50.92;24.50;;;;;;;;;;1918131;75;20995;-46
2023/01/15 02:11:59;;;;;;;42.43;23.52;;;;;;;;;;1917928;75;21101;-45
2023/01/15 02:14:32;;;;;;;53.17;25.70;;;;;;;;;;1917846;74;21124;-46
2023/01/15 02:17:02;;;;;;;42.38;24.45;;;;;;;;;;1916402;74;21019;-46
2023/01/15 02:19:33;;;;;;;45.12;21.93;;;;;;;;;;1917593;74;21089;-46
2023/01/15 02:22:06;;;;;;;41.23;21.70;;;;;;;;;;1916034;75;21011;-47
2023/01/15 02:24:36;;;;;;;42.67;21.10;;;;;;;;;;1917763;74;21010;-46
2023/01/15 02:27:16;;;;;;;39.85;21.17;;;;;;;;;;1918099;74;21101;-47
2023/01/15 02:29:49;;;;;;;46.37;22.70;;;;;;;;;;1917997;75;21486;-46
2023/01/15 02:32:20;;;;;;;48.23;22.10;;;;;;;;;;1892779;75;21034;-46
2023/01/15 02:34:50;;;;;;;44.83;20.50;;;;;;;;;;1917465;74;21038;-46
2023/01/15 02:37:20;;;;;;;41.85;19.52;;;;;;;;;;1917121;74;21011;-46
2023/01/15 02:39:49;;;;;;;43.75;21.42;;;;;;;;;;1918010;75;21039;-46
2023/01/15 02:42:20;;;;;;;44.45;20.92;;;;;;;;;;1918278;75;21080;-47
2023/01/15 02:44:50;;;;;;;41.65;22.15;;;;;;;;;;1918192;75;20999;-47
2023/01/15 02:47:20;;;;;;;39.55;18.35;;;;;;;;;;1918056;74;21085;-46
2023/01/15 02:49:49;;;;;;;37.00;18.12;;;;;;;;;;1918113;75;21076;-45
2023/01/15 02:52:22;;;;;;;48.17;18.87;;;;;;;;;;1918075;75;21142;-47
2023/01/15 02:54:52;;;;;;;40.92;18.90;;;;;;;;;;1917981;75;21027;-46
2023/01/15 02:57:23;;;;;;;40.33;19.12;;;;;;;;;;1916862;74;21098;-47
2023/01/15 02:59:54;;;;;;;38.70;18.98;;;;;;;;;;1917649;74;20987;-47
2023/01/15 03:02:25;;;;;;;46.23;20.00;;;;;;;;;;1918151;75;21096;-46
2023/01/15 03:04:54;;;;;;;41.28;20.62;;;;;;;;;;1918101;75;21003;-46
2023/01/15 03:07:25;;;;;;;40.60;19.55;;;;;;;;;;1918120;74;20984;-46
2023/01/15 03:09:55;;;;;;;36.55;17.80;;;;;;;;;;1918055;74;21050;-46
2023/01/15 03:12:25;;;;;;;37.13;18.25;;;;;;;;;;1918060;75;21081;-46
2023/01/15 03:14:58;;;;;;;34.78;16.90;;;;;;;;;;1918213;75;20999;-47
2023/01/15 03:17:28;;;;;;;33.78;17.57;;;;;;;;;;1917671;74;20983;-46
2023/01/15 03:19:58;;;;;;;35.28;17.48;;;;;;;;;;1913342;74;21031;-47
2023/01/15 03:22:31;;;;;;;28.17;16.45;;;;;;;;;;1918111;75;21095;-47
2023/01/15 03:25:07;;;;;;;43.65;16.75;;;;;;;;;;1917489;74;21015;-46
2023/01/15 03:27:37;;;;;;;37.05;14.68;;;;;;;;;;1917507;74;21042;-46
2023/01/15 03:30:07;;;;;;;35.50;15.68;;;;;;;;;;1918187;75;21062;-47
2023/01/15 03:32:36;;;;;;;33.15;14.68;;;;;;;;;;1918063;75;21625;-46
2023/01/15 03:35:06;;;;;;;30.68;15.15;;;;;;;;;;1918181;75;21058;-46
2023/01/15 03:37:36;;;;;;;27.30;13.65;;;;;;;;;;1916819;74;21446;-48
2023/01/15 03:40:06;;;;;;;29.20;13.58;;;;;;;;;;1917968;75;21114;-46
2023/01/15 03:43:39;;;;;;;37.33;16.00;;;;;;;;;;1918098;75;21533;-46
2023/01/15 03:45:26;;;;;;;29.72;14.93;;;;;;;;;;1914558;75;21120;-46
2023/01/15 03:47:56;;;;;;;30.50;12.58;;;;;;;;;;1917480;74;21122;-46
2023/01/15 03:50:27;;;;;;;31.95;14.75;;;;;;;;;;1905251;75;21079;-47
2023/01/15 03:53:02;;;;;;;29.02;14.05;;;;;;;;;;1917753;74;21271;-46
2023/01/15 03:55:35;;;;;;;33.55;13.08;;;;;;;;;;1914312;74;21125;-46
2023/01/15 03:58:07;;;;;;;40.30;12.80;;;;;;;;;;1905280;74;21047;-47
2023/01/15 04:00:38;;;;;;;29.70;12.95;;;;;;;;;;1904968;74;21104;-46
2023/01/15 04:03:08;;;;;;;25.57;12.68;;;;;;;;;;1905150;75;21450;-46
2023/01/15 04:05:37;;;;;;;35.30;12.68;;;;;;;;;;1904926;75;21040;-46
2023/01/15 04:08:06;;;;;;;28.05;12.03;;;;;;;;;;1904894;75;21041;-46
2023/01/15 04:10:36;;;;;;;34.67;13.68;;;;;;;;;;1904960;75;21015;-46
2023/01/15 04:13:06;;;;;;;26.93;10.70;;;;;;;;;;1904829;74;21027;-46
2023/01/15 04:15:35;;;;;;;34.75;11.95;;;;;;;;;;1905106;75;21101;-46
2023/01/15 04:18:03;;;;;;;30.82;12.40;;;;;;;;;;1905140;75;21036;-48
2023/01/15 04:20:33;;;;;;;28.42;11.93;;;;;;;;;;1905243;75;20980;-47
2023/01/15 04:23:02;;;;;;;35.05;11.88;;;;;;;;;;1905289;75;21023;-46
2023/01/15 04:25:30;;;;;;;31.33;10.35;;;;;;;;;;1905095;75;21094;-46
2023/01/15 04:27:59;;;;;;;23.95;12.07;;;;;;;;;;1905001;75;21035;-46
2023/01/15 04:30:28;;;;;;;29.20;12.15;;;;;;;;;;1904995;75;21043;-46
2023/01/15 04:32:57;;;;;;;32.53;10.60;;;;;;;;;;1905194;75;21031;-46
2023/01/15 04:35:25;;;;;;;37.83;12.53;;;;;;;;;;1904953;75;21125;-46
2023/01/15 04:37:55;;;;;;;29.80;12.53;;;;;;;;;;1905038;75;21032;-46
2023/01/15 04:46:00;;;;;;;25.82;10.90;;;;;;;;;;1905092;75;21048;-46
2023/01/15 04:48:30;;;;;;;24.00;11.78;;;;;;;;;;1905058;75;21207;-46
2023/01/15 04:51:00;;;;;;;27.98;10.53;;;;;;;;;;1905044;75;21051;-45
2023/01/15 04:53:28;;;;;;;29.82;11.85;;;;;;;;;;1905219;75;21008;-46
2023/01/15 04:56:01;;;;;;;21.42;10.43;;;;;;;;;;1908052;75;21131;-46
2023/01/15 04:58:29;;;;;;;24.15;10.75;;;;;;;;;;1918014;75;21112;-46
2023/01/15 05:00:59;;;;;;;20.25;10.23;;;;;;;;;;1917965;75;21031;-46
2023/01/15 05:03:28;;;;;;;32.65;12.63;;;;;;;;;;1918001;75;21081;-46
2023/01/15 05:05:58;;;;;;;28.47;11.18;;;;;;;;;;1918004;75;21004;-46
2023/01/15 05:08:27;;;;;;;26.17;11.05;;;;;;;;;;1917923;74;21039;-46
2023/01/15 05:10:55;;;;;;;23.07;11.60;;;;;;;;;;1918015;74;21066;-46
2023/01/15 05:13:24;;;;;;;24.47;10.95;;;;;;;;;;1918064;75;21027;-46
2023/01/15 05:15:53;;;;;;;25.32;10.23;;;;;;;;;;1917953;75;21039;-46
2023/01/15 05:18:21;;;;;;;26.52;11.43;;;;;;;;;;1918095;75;21122;-47
2023/01/15 05:20:50;;;;;;;31.25;12.03;;;;;;;;;;1917914;75;21015;-47
2023/01/15 05:23:19;;;;;;;22.13;10.88;;;;;;;;;;1917880;75;21011;-46
2023/01/15 05:25:47;;;;;;;29.67;13.55;;;;;;;;;;1917940;75;21096;-47
2023/01/15 05:28:15;;;;;;;36.17;13.53;;;;;;;;;;1917906;75;21435;-46
2023/01/15 05:30:44;;;;;;;29.57;12.10;;;;;;;;;;1917947;75;20995;-49
2023/01/15 05:33:12;;;;;;;27.37;12.93;;;;;;;;;;1917933;75;21104;-46
2023/01/15 05:35:41;;;;;;;29.67;12.45;;;;;;;;;;1917759;75;21093;-47
2023/01/15 05:38:09;;;;;;;31.00;11.43;;;;;;;;;;1917861;75;21101;-47
2023/01/15 05:40:38;;;;;;;28.27;13.68;;;;;;;;;;1917943;75;21027;-46
2023/01/15 05:43:07;;;;;;;23.38;11.40;;;;;;;;;;1917959;75;21117;-47
2023/01/15 05:45:36;;;;;;;25.75;11.90;;;;;;;;;;1917944;75;21148;-45
2023/01/15 05:48:04;;;;;;;23.85;9.85;;;;;;;;;;1918006;75;21027;-46
2023/01/15 05:50:33;;;;;;;33.42;15.30;;;;;;;;;;1917958;75;21046;-46
2023/01/15 05:53:02;;;;;;;29.67;11.85;;;;;;;;;;1917920;75;21042;-46
2023/01/15 05:55:30;;;;;;;28.42;12.05;;;;;;;;;;1917996;75;20999;-46
2023/01/15 05:57:59;;;;;;;30.32;12.93;;;;;;;;;;1907092;75;21052;-47
2023/01/15 06:00:27;;;;;;;34.18;14.50;;;;;;;;;;1905262;75;21116;-46
2023/01/15 06:02:56;;;;;;;30.57;14.13;;;;;;;;;;1905260;75;21153;-46
2023/01/15 06:05:25;;;;;;;29.98;12.68;;;;;;;;;;1905199;75;21004;-46
2023/01/15 06:07:54;;;;;;;28.25;12.73;;;;;;;;;;1905331;75;21004;-46
2023/01/15 06:10:22;;;;;;;28.38;11.65;;;;;;;;;;1905310;75;21000;-46
2023/01/15 06:12:50;;;;;;;22.65;12.60;;;;;;;;;;1905322;75;21004;-46
2023/01/15 06:15:19;;;;;;;29.23;13.05;;;;;;;;;;1905541;75;21065;-46
2023/01/15 06:17:49;;;;;;;25.45;12.30;;;;;;;;;;1905442;75;21035;-46
2023/01/15 06:20:18;;;;;;;31.40;13.72;;;;;;;;;;1905399;75;21089;-46
2023/01/15 06:22:48;;;;;;;31.00;13.93;;;;;;;;;;1905553;75;21533;-46
2023/01/15 06:25:17;;;;;;;30.15;15.40;;;;;;;;;;1905472;75;21004;-47
2023/01/15 06:27:47;;;;;;;32.78;15.68;;;;;;;;;;1905559;75;21477;-46
2023/01/15 06:30:15;;;;;;;31.60;16.15;;;;;;;;;;1905408;75;21110;-47
2023/01/15 06:32:44;;;;;;;37.85;18.52;;;;;;;;;;1905509;75;21055;-48
2023/01/15 06:35:13;;;;;;;32.80;15.78;;;;;;;;;;1905297;75;21031;-47
2023/01/15 06:37:41;;;;;;;41.42;17.12;;;;;;;;;;1905253;75;21040;-47
2023/01/15 06:40:11;;;;;;;31.05;15.88;;;;;;;;;;1905248;75;21024;-46
2023/01/15 06:48:12;;;;;;;37.63;15.00;;;;;;;;;;1905418;75;21505;-46
2023/01/15 06:50:40;;;;;;;48.85;17.73;;;;;;;;;;1905368;75;21031;-46
2023/01/15 06:53:09;;;;;;;33.10;14.78;;;;;;;;;;1905465;75;21023;-46
2023/01/15 06:55:37;;;;;;;33.48;16.60;;;;;;;;;;1905435;75;21067;-46
2023/01/15 06:58:06;;;;;;;37.60;14.90;;;;;;;;;;1914579;75;21047;-46
2023/01/15 07:00:34;;;;;;;31.30;15.83;;;;;;;;;;1918043;75;21019;-45
2023/01/15 07:03:03;;;;;;;37.60;15.18;;;;;;;;;;1917989;75;21011;-46
2023/01/15 07:05:32;;;;;;;35.28;15.60;;;;;;;;;;1918089;75;21011;-46
2023/01/15 07:08:00;;;;;;;26.62;13.00;;;;;;;;;;1917961;75;21108;-46
2023/01/15 07:10:29;;;;;;;32.58;13.38;;;;;;;;;;1918096;75;21101;-46
2023/01/15 07:12:58;;;;;;;26.70;13.00;;;;;;;;;;1918040;75;21010;-51
2023/01/15 07:15:26;;;;;;;31.73;12.53;;;;;;;;;;1918118;75;20995;-51
2023/01/15 07:17:55;;;;;;;25.72;10.85;;;;;;;;;;1918014;75;21023;-51
2023/01/15 07:20:24;;;;;;;23.15;10.75;;;;;;;;;;1917917;75;21035;-50
2023/01/15 07:22:52;;;;;;;26.80;11.12;;;;;;;;;;1918137;75;21007;-51
2023/01/15 07:25:21;;;;;;;19.57;10.18;;;;;;;;;;1918117;75;21027;-51
2023/01/15 07:27:50;;;;;;;27.75;11.12;;;;;;;;;;1918166;75;21011;-54
2023/01/15 07:30:18;;;;;;;21.40;10.53;;;;;;;;;;1918108;75;21027;-54
2023/01/15 07:32:47;;;;;;;24.30;12.53;;;;;;;;;;1918196;75;21046;-50
2023/01/15 07:35:15;;;;;;;23.15;11.57;;;;;;;;;;1917982;75;21113;-51
2023/01/15 07:37:44;;;;;;;23.35;10.82;;;;;;;;;;1917688;75;21011;-53
2023/01/15 07:40:13;;;;;;;21.70;10.63;;;;;;;;;;1888857;75;21071;-54
2023/01/15 07:50:55;;;;;;;27.67;11.08;;;;;;;;;;1917987;74;21101;-55
2023/01/15 07:53:24;;;;;;;20.82;10.65;;;;;;;;;;1918110;75;21019;-51
2023/01/15 07:55:52;;;;;;;26.80;10.53;;;;;;;;;;1917916;75;21039;-52
2023/01/15 07:58:21;;;;;;;17.50;9.98;;;;;;;;;;1909800;75;21028;-54
2023/01/15 08:00:50;;;;;;;22.65;11.65;;;;;;;;;;1904968;75;21019;-51
2023/01/15 08:03:18;;;;;;;23.27;10.82;;;;;;;;;;1887198;75;21107;-54
2023/01/15 08:05:46;;;;;;;20.10;10.63;;;;;;;;;;1885587;75;21051;-51
2023/01/15 08:08:16;;;;;;;23.10;9.53;;;;;;;;;;1889523;74;21332;-52
2023/01/15 08:16:19;;;;;;;16.27;8.73;;;;;;;;;;1861101;75;21483;-53
2023/01/15 08:18:47;;;;;;;21.82;9.98;;;;;;;;;;1863533;77;21145;-52
2023/01/15 08:21:16;;;;;;;20.95;9.88;;;;;;;;;;1873019;74;21023;-54
2023/01/15 08:23:45;;;;;;;20.32;9.03;;;;;;;;;;1887723;75;21107;-55
2023/01/15 08:26:14;;;;;;;20.15;9.15;;;;;;;;;;1886397;75;21233;-52
2023/01/15 08:28:43;;;;;;;22.87;9.23;;;;;;;;;;1888933;75;21098;-52
2023/01/15 08:31:12;;;;;;;17.45;9.05;;;;;;;;;;1889294;75;21080;-52
2023/01/15 08:33:40;;;;;;;18.48;9.68;;;;;;;;;;1886866;75;21041;-53
2023/01/15 08:36:09;;;;;;;19.98;10.60;;;;;;;;;;1882786;74;21206;-53
2023/01/15 08:38:37;;;;;;;22.10;10.50;;;;;;;;;;1889320;75;21067;-54
2023/01/15 08:41:06;;;;;;;18.37;9.38;;;;;;;;;;1887908;75;21110;-54
2023/01/15 08:43:34;;;;;;;24.12;11.12;;;;;;;;;;1895289;75;21093;-55
2023/01/15 08:46:04;;;;;;;17.12;9.30;;;;;;;;;;1888704;74;20987;-53
2023/01/15 08:48:32;;;;;;;12.88;8.55;;;;;;;;;;1887810;75;21000;-54
2023/01/15 08:51:05;;;;;;;19.45;10.48;;;;;;;;;;1889727;75;21165;-50
2023/01/15 08:53:34;;;;;;;19.57;8.80;;;;;;;;;;1885195;75;20997;-52
2023/01/15 08:56:03;;;;;;;17.37;9.28;;;;;;;;;;1889713;75;21021;-53
2023/01/15 08:58:32;;;;;;;24.15;10.63;;;;;;;;;;1888218;75;21139;-54
2023/01/15 09:01:04;;;;;;;16.82;10.38;;;;;;;;;;1886568;75;21052;-50
2023/01/15 09:03:33;;;;;;;21.33;9.95;;;;;;;;;;1887831;75;20971;-54
2023/01/15 09:06:02;;;;;;;24.50;10.25;;;;;;;;;;1890082;75;21094;-47
2023/01/15 13:43:54;;;;;;;7.37;4.85;;;6.00;83.70;;;;;;1939556;73;26282;-47
2023/01/15 13:46:21;;;;;;;16.17;5.87;;;5.80;84.70;;;;;;1914194;75;21549;-47
2023/01/15 13:48:52;;;;;;;11.40;5.37;;;5.70;85.10;;;;;;1877307;76;21038;-48
2023/01/15 13:51:29;;;;;;;15.70;5.97;;;5.70;85.20;;;;;;1875796;76;21086;-48
2023/01/15 13:54:00;;;;;;;16.17;5.75;;;5.60;85.40;;;;;;1840297;78;21571;-44
2023/01/15 13:56:31;;;;;;;12.33;5.00;;;5.50;85.70;;;;;;1915039;75;20994;-45
2023/01/15 13:59:04;;;;;;;12.65;5.58;;;5.40;85.80;;;;;;1876611;76;21065;-48
2023/01/15 14:01:35;;;;;;;9.48;6.12;;;5.40;86.00;;;;;;1877456;76;21093;-46
2023/01/15 14:04:13;;;;;;;13.72;6.58;;;5.30;86.00;;;;;;1875431;76;21183;-47
